sensor_id;sensor_type;location;lat;lon;timestamp;pressure;altitude;pressure_sealevel;temperature;humidity
62152;BME280;48139;47.474;19.034;2023-03-22T04:44:22;100364.84;;;8.14;100.00
62152;BME280;48139;47.474;19.034;2023-03-22T04:47:26;100364.84;;;8.14;100.00
62152;BME280;48139;47.474;19.034;2023-03-22T04:50:28;100379.75;;;7.62;100.00
62152;BME280;48139;47.474;19.034;2023-03-22T04:53:32;100378.16;;;7.58;100.00
62152;BME280;48139;47.474;19.034;2023-03-22T04:56:40;100373.63;;;7.63;100.00
62152;BME280;48139;47.474;19.034;2023-03-22T04:59:43;100371.78;;;7.67;100.00
62152;BME280;48139;47.474;19.034;2023-03-22T05:02:46;100381.25;;;7.69;100.00
62152;BME280;48139;47.474;19.034;2023-03-22T05:05:54;100383.72;;;7.74;100.00
62152;BME280;48139;47.474;19.034;2023-03-22T05:08:58;100385.13;;;7.83;100.00
62152;BME280;48139;47.474;19.034;2023-03-22T05:12:02;100396.19;;;7.89;100.00
62152;BME280;48139;47.474;19.034;2023-03-22T05:15:07;100405.03;;;7.85;100.00
62152;BME280;48139;47.474;19.034;2023-03-22T05:18:10;100396.63;;;7.77;100.00
62152;BME280;48139;47.474;19.034;2023-03-22T05:21:16;100399.22;;;7.77;100.00
62152;BME280;48139;47.474;19.034;2023-03-22T05:24:24;100400.72;;;7.84;100.00
62152;BME280;48139;47.474;19.034;2023-03-22T05:27:27;100394.44;;;7.90;100.00
62152;BME280;48139;47.474;19.034;2023-03-22T05:30:33;100395.22;;;8.17;100.00
62152;BME280;48139;47.474;19.034;2023-03-22T05:33:36;100393.72;;;8.34;100.00
62152;BME280;48139;47.474;19.034;2023-03-22T05:36:39;100401.75;;;8.52;100.00
62152;BME280;48139;47.474;19.034;2023-03-22T05:39:42;100411.84;;;8.61;100.00
62152;BME280;48139;47.474;19.034;2023-03-22T05:42:45;100404.28;;;8.76;100.00
62152;BME280;48139;47.474;19.034;2023-03-22T05:45:48;100404.91;;;9.05;100.00
62152;BME280;48139;47.474;19.034;2023-03-22T05:48:53;100399.03;;;9.20;100.00
62152;BME280;48139;47.474;19.034;2023-03-22T05:51:57;100395.16;;;9.30;100.00
62152;BME280;48139;47.474;19.034;2023-03-22T05:55:00;100402.69;;;9.58;100.00
62152;BME280;48139;47.474;19.034;2023-03-22T05:58:04;100407.25;;;9.93;100.00
62152;BME280;48139;47.474;19.034;2023-03-22T06:01:11;100405.66;;;10.30;100.00
62152;BME280;48139;47.474;19.034;2023-03-22T06:04:16;100413.81;;;10.61;98.44
62152;BME280;48139;47.474;19.034;2023-03-22T06:07:20;100418.91;;;10.83;96.98
62152;BME280;48139;47.474;19.034;2023-03-22T06:10:24;100432.25;;;11.14;95.55
62152;BME280;48139;47.474;19.034;2023-03-22T06:13:28;100430.09;;;11.22;92.92
62152;BME280;48139;47.474;19.034;2023-03-22T06:16:31;100425.66;;;11.42;92.27
62152;BME280;48139;47.474;19.034;2023-03-22T06:19:34;100434.94;;;11.83;88.73
62152;BME280;48139;47.474;19.034;2023-03-22T06:22:38;100432.63;;;11.94;87.00
62152;BME280;48139;47.474;19.034;2023-03-22T06:25:41;100423.75;;;11.97;86.12
62152;BME280;48139;47.474;19.034;2023-03-22T06:28:44;100427.75;;;12.37;83.83
62152;BME280;48139;47.474;19.034;2023-03-22T06:31:47;100429.59;;;12.68;82.40
62152;BME280;48139;47.474;19.034;2023-03-22T06:34:49;100429.00;;;12.94;78.78
62152;BME280;48139;47.474;19.034;2023-03-22T06:37:53;100436.81;;;13.11;78.61
62152;BME280;48139;47.474;19.034;2023-03-22T06:40:56;100438.16;;;13.34;76.65
62152;BME280;48139;47.474;19.034;2023-03-22T06:43:59;100434.97;;;13.59;74.61
62152;BME280;48139;47.474;19.034;2023-03-22T06:47:09;100431.38;;;13.90;71.85
62152;BME280;48139;47.474;19.034;2023-03-22T06:50:12;100433.50;;;13.83;70.61
62152;BME280;48139;47.474;19.034;2023-03-22T06:53:21;100435.34;;;13.97;70.70
62152;BME280;48139;47.474;19.034;2023-03-22T06:56:24;100444.91;;;15.11;63.89
62152;BME280;48139;47.474;19.034;2023-03-22T06:59:28;100439.19;;;15.05;63.33
62152;BME280;48139;47.474;19.034;2023-03-22T07:02:30;100442.12;;;14.86;64.57
62152;BME280;48139;47.474;19.034;2023-03-22T07:05:37;100454.03;;;14.50;64.73
62152;BME280;48139;47.474;19.034;2023-03-22T07:08:40;100450.31;;;14.25;66.49
62152;BME280;48139;47.474;19.034;2023-03-22T07:11:44;100446.16;;;14.06;67.01
62152;BME280;48139;47.474;19.034;2023-03-22T07:14:47;100445.56;;;13.87;69.01
62152;BME280;48139;47.474;19.034;2023-03-22T07:17:50;100451.09;;;13.83;69.05
62152;BME280;48139;47.474;19.034;2023-03-22T07:20:54;100460.03;;;13.80;68.50
62152;BME280;48139;47.474;19.034;2023-03-22T07:23:57;100458.28;;;13.95;67.66
62152;BME280;48139;47.474;19.034;2023-03-22T07:27:00;100461.63;;;14.27;65.78
62152;BME280;48139;47.474;19.034;2023-03-22T07:30:04;100456.88;;;14.47;66.03
62152;BME280;48139;47.474;19.034;2023-03-22T07:33:10;100457.87;;;14.73;63.79
62152;BME280;48139;47.474;19.034;2023-03-22T07:36:14;100458.66;;;15.16;60.65
62152;BME280;48139;47.474;19.034;2023-03-22T07:39:17;100448.19;;;15.81;57.78
62152;BME280;48139;47.474;19.034;2023-03-22T07:42:22;100450.37;;;15.62;57.19
62152;BME280;48139;47.474;19.034;2023-03-22T07:45:28;100461.28;;;15.16;58.44
62152;BME280;48139;47.474;19.034;2023-03-22T07:48:34;100457.72;;;15.03;59.83
62152;BME280;48139;47.474;19.034;2023-03-22T07:51:38;100455.78;;;15.19;59.09
62152;BME280;48139;47.474;19.034;2023-03-22T07:54:41;100460.03;;;15.49;58.45
62152;BME280;48139;47.474;19.034;2023-03-22T07:57:43;100464.53;;;15.61;56.77
62152;BME280;48139;47.474;19.034;2023-03-22T08:00:46;100463.53;;;15.89;56.17
62152;BME280;48139;47.474;19.034;2023-03-22T08:03:54;100454.88;;;15.99;54.78
62152;BME280;48139;47.474;19.034;2023-03-22T08:06:59;100449.06;;;15.94;53.50
62152;BME280;48139;47.474;19.034;2023-03-22T08:10:03;100454.72;;;15.63;54.40
62152;BME280;48139;47.474;19.034;2023-03-22T08:13:06;100459.16;;;15.36;55.20
62152;BME280;48139;47.474;19.034;2023-03-22T08:16:09;100444.06;;;15.50;56.24
62152;BME280;48139;47.474;19.034;2023-03-22T08:19:12;100443.75;;;15.42;56.06
62152;BME280;48139;47.474;19.034;2023-03-22T08:22:15;100441.19;;;15.55;55.77
62152;BME280;48139;47.474;19.034;2023-03-22T08:25:20;100440.81;;;15.73;55.80
62152;BME280;48139;47.474;19.034;2023-03-22T08:28:25;100452.75;;;15.79;56.20
62152;BME280;48139;47.474;19.034;2023-03-22T08:31:28;100455.06;;;15.71;55.88
62152;BME280;48139;47.474;19.034;2023-03-22T08:34:35;100454.22;;;15.83;55.61
62152;BME280;48139;47.474;19.034;2023-03-22T08:37:38;100464.78;;;15.83;55.70
62152;BME280;48139;47.474;19.034;2023-03-22T08:40:46;100462.94;;;16.10;54.47
62152;BME280;48139;47.474;19.034;2023-03-22T08:43:51;100454.88;;;16.37;52.99
62152;BME280;48139;47.474;19.034;2023-03-22T08:46:54;100453.00;;;16.65;52.48
62152;BME280;48139;47.474;19.034;2023-03-22T08:49:57;100463.22;;;16.57;52.99
62152;BME280;48139;47.474;19.034;2023-03-22T08:53:02;100467.69;;;16.43;53.50
62152;BME280;48139;47.474;19.034;2023-03-22T08:56:05;100463.81;;;16.24;53.44
62152;BME280;48139;47.474;19.034;2023-03-22T08:59:10;100464.09;;;16.19;53.79
62152;BME280;48139;47.474;19.034;2023-03-22T09:02:12;100459.03;;;16.03;54.43
62152;BME280;48139;47.474;19.034;2023-03-22T09:05:16;100461.78;;;16.14;54.67
62152;BME280;48139;47.474;19.034;2023-03-22T09:08:19;100453.84;;;16.27;52.77
62152;BME280;48139;47.474;19.034;2023-03-22T09:11:23;100453.41;;;16.21;53.26
62152;BME280;48139;47.474;19.034;2023-03-22T09:14:25;100454.78;;;16.39;52.61
62152;BME280;48139;47.474;19.034;2023-03-22T09:17:29;100458.91;;;16.68;52.37
62152;BME280;48139;47.474;19.034;2023-03-22T09:20:31;100458.50;;;17.11;51.24
62152;BME280;48139;47.474;19.034;2023-03-22T09:23:36;100454.91;;;16.99;51.29
62152;BME280;48139;47.474;19.034;2023-03-22T09:26:39;100457.66;;;17.10;50.09
62152;BME280;48139;47.474;19.034;2023-03-22T09:29:43;100451.41;;;17.11;50.57
62152;BME280;48139;47.474;19.034;2023-03-22T09:32:47;100448.31;;;16.81;51.46
62152;BME280;48139;47.474;19.034;2023-03-22T09:35:52;100451.25;;;16.89;51.17
62152;BME280;48139;47.474;19.034;2023-03-22T09:38:56;100452.94;;;16.90;51.38
62152;BME280;48139;47.474;19.034;2023-03-22T09:42:09;100443.28;;;17.25;50.71
62152;BME280;48139;47.474;19.034;2023-03-22T09:45:20;100442.38;;;17.14;50.64
62152;BME280;48139;47.474;19.034;2023-03-22T09:48:36;100439.72;;;16.90;50.84
62152;BME280;48139;47.474;19.034;2023-03-22T09:51:43;100442.22;;;16.55;51.68
62152;BME280;48139;47.474;19.034;2023-03-22T09:54:47;100440.63;;;16.40;52.24
62152;BME280;48139;47.474;19.034;2023-03-22T09:58:06;100443.59;;;16.35;52.72
62152;BME280;48139;47.474;19.034;2023-03-22T10:11:43;100439.78;;;16.27;53.03
62152;BME280;48139;47.474;19.034;2023-03-22T10:18:22;100438.50;;;16.32;52.93
62152;BME280;48139;47.474;19.034;2023-03-22T10:21:26;100437.78;;;16.30;53.83
62152;BME280;48139;47.474;19.034;2023-03-22T10:24:32;100441.47;;;16.40;52.61
62152;BME280;48139;47.474;19.034;2023-03-22T10:27:37;100435.34;;;16.14;53.84
62152;BME280;48139;47.474;19.034;2023-03-22T10:30:41;100439.66;;;15.90;55.81
62152;BME280;48139;47.474;19.034;2023-03-22T10:33:56;100428.13;;;15.79;56.50
62152;BME280;48139;47.474;19.034;2023-03-22T10:37:03;100427.50;;;15.88;55.82
62152;BME280;48139;47.474;19.034;2023-03-22T10:40:15;100439.00;;;15.87;56.02
62152;BME280;48139;47.474;19.034;2023-03-22T10:43:24;100431.72;;;15.78;56.44
62152;BME280;48139;47.474;19.034;2023-03-22T10:46:36;100432.44;;;15.67;57.09
62152;BME280;48139;47.474;19.034;2023-03-22T10:49:48;100434.94;;;15.56;58.46
62152;BME280;48139;47.474;19.034;2023-03-22T10:53:20;100428.53;;;15.60;58.40
62152;BME280;48139;47.474;19.034;2023-03-22T10:56:26;100425.97;;;15.58;57.88
62152;BME280;48139;47.474;19.034;2023-03-22T10:59:46;100429.38;;;15.60;57.79
62152;BME280;48139;47.474;19.034;2023-03-22T11:02:52;100429.69;;;15.68;57.00
62152;BME280;48139;47.474;19.034;2023-03-22T11:06:13;100433.03;;;15.58;58.34
62152;BME280;48139;47.474;19.034;2023-03-22T11:09:21;100423.56;;;15.68;58.17
62152;BME280;48139;47.474;19.034;2023-03-22T11:12:24;100427.34;;;15.64;58.57
62152;BME280;48139;47.474;19.034;2023-03-22T11:15:29;100408.75;;;15.53;58.25
62152;BME280;48139;47.474;19.034;2023-03-22T11:18:33;100415.16;;;15.49;58.80
62152;BME280;48139;47.474;19.034;2023-03-22T11:21:40;100408.75;;;15.53;58.25
62152;BME280;48139;47.474;19.034;2023-03-22T11:24:45;100399.09;;;15.52;58.68
62152;BME280;48139;47.474;19.034;2023-03-22T11:27:55;100398.56;;;15.47;58.32
62152;BME280;48139;47.474;19.034;2023-03-22T11:31:00;100396.78;;;15.20;59.15
62152;BME280;48139;47.474;19.034;2023-03-22T11:34:15;100388.88;;;15.20;60.19
62152;BME280;48139;47.474;19.034;2023-03-22T11:37:18;100393.75;;;15.26;60.10
62152;BME280;48139;47.474;19.034;2023-03-22T11:40:26;100393.34;;;15.32;60.04
62152;BME280;48139;47.474;19.034;2023-03-22T11:43:37;100390.31;;;15.39;59.22
62152;BME280;48139;47.474;19.034;2023-03-22T11:46:52;100377.97;;;15.52;58.81
62152;BME280;48139;47.474;19.034;2023-03-22T11:49:56;100373.56;;;15.52;58.39
62152;BME280;48139;47.474;19.034;2023-03-22T11:53:03;100382.13;;;15.56;58.86
62152;BME280;48139;47.474;19.034;2023-03-22T11:56:10;100366.84;;;15.73;58.48
62152;BME280;48139;47.474;19.034;2023-03-22T11:59:16;100371.31;;;15.98;56.83
62152;BME280;48139;47.474;19.034;2023-03-22T12:02:33;100370.53;;;16.22;55.68
62152;BME280;48139;47.474;19.034;2023-03-22T12:05:39;100365.22;;;16.34;55.36
62152;BME280;48139;47.474;19.034;2023-03-22T12:08:48;100361.72;;;16.46;54.25
62152;BME280;48139;47.474;19.034;2023-03-22T12:11:55;100376.09;;;16.68;53.82
62152;BME280;48139;47.474;19.034;2023-03-22T12:15:03;100372.06;;;16.99;52.84
62152;BME280;48139;47.474;19.034;2023-03-22T12:18:15;100366.19;;;17.30;51.56
62152;BME280;48139;47.474;19.034;2023-03-22T12:21:18;100363.09;;;17.47;49.44
62152;BME280;48139;47.474;19.034;2023-03-22T12:24:25;100367.53;;;17.70;49.76
62152;BME280;48139;47.474;19.034;2023-03-22T12:27:36;100367.03;;;17.65;49.50
62152;BME280;48139;47.474;19.034;2023-03-22T12:30:45;100361.78;;;17.88;48.40
62152;BME280;48139;47.474;19.034;2023-03-22T12:33:54;100366.37;;;18.08;47.89
62152;BME280;48139;47.474;19.034;2023-03-22T12:37:00;100364.56;;;18.20;46.68
62152;BME280;48139;47.474;19.034;2023-03-22T12:43:41;100360.19;;;17.74;46.48
62152;BME280;48139;47.474;19.034;2023-03-22T12:47:17;100361.66;;;17.78;46.88
62152;BME280;48139;47.474;19.034;2023-03-22T12:50:32;100356.19;;;17.68;47.04
62152;BME280;48139;47.474;19.034;2023-03-22T12:53:40;100360.56;;;17.81;47.40
62152;BME280;48139;47.474;19.034;2023-03-22T12:56:45;100351.69;;;18.04;46.66
62152;BME280;48139;47.474;19.034;2023-03-22T12:59:49;100345.66;;;18.13;45.66
62152;BME280;48139;47.474;19.034;2023-03-22T13:02:59;100345.53;;;18.26;45.46
62152;BME280;48139;47.474;19.034;2023-03-22T13:06:06;100346.25;;;18.05;45.20
62152;BME280;48139;47.474;19.034;2023-03-22T13:12:32;100328.41;;;17.96;44.39
62152;BME280;48139;47.474;19.034;2023-03-22T13:15:38;100319.63;;;18.29;43.93
62152;BME280;48139;47.474;19.034;2023-03-22T13:21:47;100311.31;;;18.23;43.80
62152;BME280;48139;47.474;19.034;2023-03-22T13:28:22;100312.69;;;18.49;41.79
62152;BME280;48139;47.474;19.034;2023-03-22T13:31:46;100315.03;;;18.42;42.33
62152;BME280;48139;47.474;19.034;2023-03-22T13:34:55;100303.06;;;18.48;42.20
62152;BME280;48139;47.474;19.034;2023-03-22T13:38:02;100304.28;;;18.66;41.21
62152;BME280;48139;47.474;19.034;2023-03-22T13:41:12;100302.16;;;18.81;39.78
62152;BME280;48139;47.474;19.034;2023-03-22T13:44:25;100298.37;;;18.94;39.24
62152;BME280;48139;47.474;19.034;2023-03-22T13:47:43;100302.38;;;18.89;39.45
62152;BME280;48139;47.474;19.034;2023-03-22T13:50:46;100300.81;;;18.86;39.01
62152;BME280;48139;47.474;19.034;2023-03-22T13:53:57;100295.03;;;18.81;38.87
62152;BME280;48139;47.474;19.034;2023-03-22T13:57:03;100295.69;;;18.63;39.98
62152;BME280;48139;47.474;19.034;2023-03-22T14:00:19;100291.97;;;18.54;39.30
62152;BME280;48139;47.474;19.034;2023-03-22T14:03:35;100285.59;;;18.45;39.96
62152;BME280;48139;47.474;19.034;2023-03-22T14:06:52;100282.13;;;18.34;40.71
62152;BME280;48139;47.474;19.034;2023-03-22T14:09:59;100284.44;;;18.16;39.17
62152;BME280;48139;47.474;19.034;2023-03-22T14:13:41;100278.53;;;18.24;40.51
62152;BME280;48139;47.474;19.034;2023-03-22T14:16:49;100276.38;;;18.18;40.97
62152;BME280;48139;47.474;19.034;2023-03-22T14:19:53;100276.47;;;18.27;41.26
62152;BME280;48139;47.474;19.034;2023-03-22T14:23:02;100273.31;;;18.33;41.06
62152;BME280;48139;47.474;19.034;2023-03-22T14:26:16;100268.13;;;18.32;40.96
62152;BME280;48139;47.474;19.034;2023-03-22T14:29:21;100267.31;;;18.20;41.15
62152;BME280;48139;47.474;19.034;2023-03-22T14:32:24;100267.19;;;18.22;41.25
62152;BME280;48139;47.474;19.034;2023-03-22T14:35:36;100263.94;;;18.29;41.74
62152;BME280;48139;47.474;19.034;2023-03-22T14:38:43;100264.44;;;18.23;42.05
62152;BME280;48139;47.474;19.034;2023-03-22T14:42:01;100264.16;;;18.26;42.00
62152;BME280;48139;47.474;19.034;2023-03-22T14:45:16;100262.47;;;18.25;42.21
62152;BME280;48139;47.474;19.034;2023-03-22T14:48:22;100268.75;;;18.24;43.12
62152;BME280;48139;47.474;19.034;2023-03-22T14:51:35;100267.44;;;18.19;43.51
62152;BME280;48139;47.474;19.034;2023-03-22T14:54:37;100262.88;;;18.09;42.93
62152;BME280;48139;47.474;19.034;2023-03-22T14:57:48;100254.34;;;17.84;43.42
62152;BME280;48139;47.474;19.034;2023-03-22T15:00:50;100247.97;;;17.86;43.64
62152;BME280;48139;47.474;19.034;2023-03-22T15:03:56;100256.03;;;17.85;43.76
62152;BME280;48139;47.474;19.034;2023-03-22T15:07:01;100255.03;;;17.74;44.47
62152;BME280;48139;47.474;19.034;2023-03-22T15:10:11;100252.66;;;17.60;44.76
62152;BME280;48139;47.474;19.034;2023-03-22T15:13:14;100248.97;;;17.50;45.50
62152;BME280;48139;47.474;19.034;2023-03-22T15:16:20;100250.31;;;17.56;45.43
62152;BME280;48139;47.474;19.034;2023-03-22T15:19:23;100242.97;;;17.48;45.49
62152;BME280;48139;47.474;19.034;2023-03-22T15:22:26;100240.94;;;17.63;45.67
62152;BME280;48139;47.474;19.034;2023-03-22T15:25:32;100231.75;;;17.56;45.86
62152;BME280;48139;47.474;19.034;2023-03-22T15:28:41;100227.03;;;17.37;46.39
62152;BME280;48139;47.474;19.034;2023-03-22T15:31:45;100225.97;;;17.40;46.71
62152;BME280;48139;47.474;19.034;2023-03-22T15:34:48;100225.75;;;17.43;46.60
62152;BME280;48139;47.474;19.034;2023-03-22T15:37:52;100233.44;;;17.46;46.68
62152;BME280;48139;47.474;19.034;2023-03-22T15:40:55;100231.62;;;17.24;47.61
62152;BME280;48139;47.474;19.034;2023-03-22T15:44:14;100223.31;;;17.28;47.66
62152;BME280;48139;47.474;19.034;2023-03-22T15:47:18;100225.00;;;17.29;47.98
62152;BME280;48139;47.474;19.034;2023-03-22T15:50:21;100215.47;;;17.16;47.83
62152;BME280;48139;47.474;19.034;2023-03-22T15:53:30;100221.25;;;17.10;48.18
62152;BME280;48139;47.474;19.034;2023-03-22T15:56:40;100221.62;;;17.16;47.58
62152;BME280;48139;47.474;19.034;2023-03-22T16:06:10;100215.69;;;17.02;47.91
62152;BME280;48139;47.474;19.034;2023-03-22T16:09:12;100214.88;;;16.77;48.07
62152;BME280;48139;47.474;19.034;2023-03-22T16:12:16;100221.38;;;16.73;48.43
62152;BME280;48139;47.474;19.034;2023-03-22T16:15:18;100216.94;;;16.74;48.46
62152;BME280;48139;47.474;19.034;2023-03-22T16:18:21;100222.31;;;16.48;49.29
62152;BME280;48139;47.474;19.034;2023-03-22T16:21:28;100212.25;;;16.30;49.47
62152;BME280;48139;47.474;19.034;2023-03-22T16:24:31;100218.62;;;16.14;50.40
62152;BME280;48139;47.474;19.034;2023-03-22T16:27:32;100217.06;;;15.99;52.22
62152;BME280;48139;47.474;19.034;2023-03-22T16:30:36;100208.66;;;15.82;52.46
62152;BME280;48139;47.474;19.034;2023-03-22T16:33:38;100213.87;;;15.70;51.85
62152;BME280;48139;47.474;19.034;2023-03-22T16:36:40;100215.50;;;15.60;52.14
62152;BME280;48139;47.474;19.034;2023-03-22T16:39:42;100212.06;;;15.46;53.27
62152;BME280;48139;47.474;19.034;2023-03-22T16:42:43;100220.09;;;15.31;53.87
62152;BME280;48139;47.474;19.034;2023-03-22T16:45:46;100216.59;;;15.31;54.43
62152;BME280;48139;47.474;19.034;2023-03-22T16:48:49;100218.09;;;15.22;54.70
62152;BME280;48139;47.474;19.034;2023-03-22T16:51:50;100231.03;;;15.00;57.23
62152;BME280;48139;47.474;19.034;2023-03-22T16:54:53;100223.75;;;14.78;58.92
